createdAt,value
2023-03-18T00:00:11.276Z,24.85
2023-03-18T00:02:39.288Z,25.73
2023-03-18T00:05:07.992Z,24.52
2023-03-18T00:07:36.146Z,24.63
2023-03-18T00:10:04.424Z,24.77
2023-03-18T00:12:32.325Z,23.90
2023-03-18T00:14:59.625Z,23.95
2023-03-18T00:17:26.694Z,22.63
2023-03-18T00:19:53.778Z,21.63
2023-03-18T00:22:20.394Z,23.67
2023-03-18T00:24:48.801Z,23.55
2023-03-18T00:27:15.418Z,23.20
2023-03-18T00:29:42.161Z,21.90
2023-03-18T00:32:08.982Z,21.35
2023-03-18T00:34:37.247Z,21.58
2023-03-18T00:37:03.860Z,21.35
2023-03-18T00:39:32.886Z,21.40
2023-03-18T00:42:07.920Z,20.88
2023-03-18T00:47:01.330Z,19.10
2023-03-18T00:49:28.160Z,23.00
2023-03-18T00:51:54.797Z,17.90
2023-03-18T00:54:22.401Z,16.08
2023-03-18T00:56:49.458Z,18.10
2023-03-18T00:59:16.616Z,14.85
2023-03-18T01:01:44.197Z,23.67
2023-03-18T01:04:11.349Z,22.95
2023-03-18T01:06:38.411Z,18.98
2023-03-18T01:09:08.696Z,21.80
2023-03-18T01:11:35.493Z,22.95
2023-03-18T01:14:03.486Z,19.65
2023-03-18T01:16:30.284Z,20.33
2023-03-18T01:18:58.212Z,24.65
2023-03-18T01:21:27.465Z,27.38
2023-03-18T01:23:57.590Z,21.98
2023-03-18T01:26:26.288Z,33.72
2023-03-18T01:28:54.806Z,26.38
2023-03-18T01:31:21.996Z,21.70
2023-03-18T01:33:48.948Z,21.45
2023-03-18T01:36:17.422Z,29.10
2023-03-18T01:38:49.245Z,21.30
2023-03-18T01:41:17.099Z,23.83
2023-03-18T01:43:43.956Z,26.92
2023-03-18T01:46:45.410Z,28.27
2023-03-18T01:49:23.849Z,23.00
2023-03-18T01:52:09.215Z,30.33
2023-03-18T01:54:42.181Z,28.27
2023-03-18T01:57:09.336Z,31.23
2023-03-18T01:59:39.904Z,31.42
2023-03-18T02:02:12.601Z,24.23
2023-03-18T02:04:51.379Z,26.77
2023-03-18T02:07:21.464Z,26.00
2023-03-18T02:09:49.859Z,29.38
2023-03-18T02:12:29.357Z,28.13
2023-03-18T02:15:01.896Z,30.80
2023-03-18T02:17:33.089Z,38.53
2023-03-18T02:20:27.850Z,30.77
2023-03-18T02:26:03.389Z,23.27
2023-03-18T02:28:31.775Z,29.88
2023-03-18T02:31:03.725Z,29.90
2023-03-18T02:33:38.817Z,32.50
2023-03-18T02:36:28.255Z,32.28
2023-03-18T02:38:57.667Z,33.60
2023-03-18T02:41:28.683Z,30.63
2023-03-18T02:43:55.920Z,34.45
2023-03-18T02:46:47.502Z,30.33
2023-03-18T02:49:15.594Z,27.65
2023-03-18T02:51:42.349Z,22.50
2023-03-18T02:54:18.307Z,29.83
2023-03-18T02:56:45.161Z,33.63
2023-03-18T02:59:13.003Z,32.78
2023-03-18T03:01:41.297Z,33.08
2023-03-18T03:04:08.331Z,29.45
2023-03-18T03:06:36.540Z,24.10
2023-03-18T03:09:05.909Z,25.13
2023-03-18T03:11:34.600Z,30.50
2023-03-18T03:14:10.817Z,23.95
2023-03-18T03:16:38.752Z,30.75
2023-03-18T03:19:06.841Z,22.50
2023-03-18T03:21:36.476Z,22.48
2023-03-18T03:24:04.661Z,19.25
2023-03-18T03:26:31.825Z,22.08
2023-03-18T03:28:58.744Z,27.92
2023-03-18T03:31:26.260Z,27.38
2023-03-18T03:33:53.463Z,22.85
2023-03-18T03:36:20.356Z,24.25
2023-03-18T03:38:48.214Z,23.35
2023-03-18T03:41:15.891Z,22.85
2023-03-18T03:43:43.318Z,20.75
2023-03-18T03:46:11.090Z,20.48
2023-03-18T03:48:39.478Z,23.75
2023-03-18T03:51:10.525Z,17.23
2023-03-18T03:53:37.160Z,21.80
2023-03-18T03:56:05.138Z,22.52
2023-03-18T03:58:31.975Z,23.35
2023-03-18T04:00:58.624Z,26.35
2023-03-18T04:03:26.505Z,27.00
2023-03-18T04:05:54.600Z,24.08
2023-03-18T04:08:24.074Z,26.92
2023-03-18T04:10:51.765Z,22.77
2023-03-18T04:13:18.553Z,23.50
2023-03-18T04:15:47.470Z,25.17
2023-03-18T04:18:18.038Z,21.15
2023-03-18T04:20:46.124Z,21.92
2023-03-18T04:23:20.696Z,21.58
2023-03-18T04:25:47.687Z,26.73
2023-03-18T04:28:16.253Z,23.38
2023-03-18T04:30:42.909Z,26.40
2023-03-18T04:33:14.479Z,24.77
2023-03-18T04:35:44.671Z,23.00
2023-03-18T04:38:13.607Z,26.05
2023-03-18T04:40:40.922Z,27.00
2023-03-18T04:43:07.560Z,26.67
2023-03-18T04:45:34.538Z,30.85
2023-03-18T04:48:02.708Z,27.10
2023-03-18T04:50:33.116Z,27.88
2023-03-18T04:53:00.103Z,34.92
2023-03-18T04:55:29.285Z,33.15
2023-03-18T04:57:56.880Z,27.10
2023-03-18T05:00:25.930Z,27.25
2023-03-18T05:03:02.028Z,32.50
2023-03-18T05:05:28.661Z,33.42
2023-03-18T05:07:55.408Z,35.83
2023-03-18T05:10:23.829Z,31.23
2023-03-18T05:12:50.764Z,33.50
2023-03-18T05:15:25.859Z,27.10
2023-03-18T05:17:55.113Z,30.55
2023-03-18T05:20:22.397Z,31.90
2023-03-18T05:22:49.933Z,32.85
2023-03-18T05:25:27.990Z,40.15
2023-03-18T05:27:54.779Z,33.75
2023-03-18T05:30:30.400Z,37.92
2023-03-18T05:32:57.152Z,37.67
2023-03-18T05:35:37.377Z,37.33
2023-03-18T05:38:04.485Z,28.08
2023-03-18T05:40:31.401Z,41.15
2023-03-18T05:43:05.709Z,36.35
2023-03-18T05:45:40.456Z,32.95
2023-03-18T05:48:10.547Z,34.78
2023-03-18T05:50:44.556Z,39.78
2023-03-18T05:53:16.882Z,34.85
2023-03-18T05:55:45.549Z,33.42
2023-03-18T05:58:12.738Z,34.67
2023-03-18T06:00:41.471Z,34.88
2023-03-18T06:03:10.093Z,39.08
2023-03-18T06:05:37.189Z,45.40
2023-03-18T06:08:04.290Z,37.90
2023-03-18T06:10:33.379Z,36.10
2023-03-18T06:13:00.864Z,40.13
2023-03-18T06:15:27.646Z,41.67
2023-03-18T06:17:56.186Z,41.33
2023-03-18T06:20:23.299Z,39.58
2023-03-18T06:22:50.297Z,48.92
2023-03-18T06:25:19.383Z,51.55
2023-03-18T06:27:47.705Z,41.00
2023-03-18T06:30:17.287Z,43.00
2023-03-18T06:32:44.770Z,40.10
2023-03-18T06:35:12.324Z,45.55
2023-03-18T06:37:39.944Z,47.45
2023-03-18T06:40:10.507Z,48.60
2023-03-18T06:42:37.489Z,36.03
2023-03-18T06:45:10.506Z,44.10
2023-03-18T06:47:47.855Z,41.20
2023-03-18T06:50:15.172Z,38.78
2023-03-18T06:52:43.535Z,41.50
2023-03-18T06:55:14.676Z,41.15
2023-03-18T06:57:45.547Z,41.58
2023-03-18T07:00:15.696Z,40.03
2023-03-18T07:02:43.175Z,32.78
2023-03-18T07:05:12.836Z,32.00
2023-03-18T07:07:41.914Z,30.35
2023-03-18T07:10:15.214Z,28.45
2023-03-18T07:12:41.924Z,24.77
2023-03-18T07:15:09.140Z,25.17
2023-03-18T07:17:37.195Z,23.80
2023-03-18T07:20:05.422Z,24.00
2023-03-18T07:22:35.024Z,22.63
2023-03-18T07:25:01.648Z,20.58
2023-03-18T07:27:29.707Z,23.15
2023-03-18T07:29:57.031Z,17.90
2023-03-18T07:32:23.711Z,17.83
2023-03-18T07:34:50.470Z,14.88
2023-03-18T07:37:17.072Z,11.40
2023-03-18T07:39:43.775Z,14.07
2023-03-18T07:42:11.209Z,11.02
2023-03-18T07:44:41.308Z,9.80
2023-03-18T07:47:07.984Z,13.00
2023-03-18T07:49:34.670Z,12.45
2023-03-18T07:52:02.062Z,15.88
2023-03-18T07:54:28.646Z,16.80
2023-03-18T07:56:55.285Z,20.17
2023-03-18T07:59:22.168Z,19.83
2023-03-18T08:01:48.913Z,22.23
2023-03-18T08:04:16.435Z,24.42
2023-03-18T08:06:43.339Z,21.05
2023-03-18T08:09:10.557Z,23.50
2023-03-18T08:11:38.023Z,27.35
2023-03-18T08:14:04.616Z,23.90
2023-03-18T08:16:31.403Z,24.52
2023-03-18T08:18:58.469Z,23.70
2023-03-18T08:21:25.396Z,26.15
2023-03-18T08:23:52.089Z,26.10
2023-03-18T08:26:19.288Z,27.35
2023-03-18T08:28:45.862Z,26.42
2023-03-18T08:31:14.119Z,30.60
2023-03-18T08:33:41.414Z,26.30
2023-03-18T08:36:08.594Z,29.23
2023-03-18T08:38:35.814Z,30.05
2023-03-18T08:41:03.794Z,32.00
2023-03-18T08:43:30.361Z,30.48
2023-03-18T08:45:57.481Z,31.55
2023-03-18T08:48:25.681Z,29.77
2023-03-18T08:50:52.613Z,30.13
2023-03-18T08:53:19.804Z,29.15
2023-03-18T08:55:47.142Z,32.55
2023-03-18T08:58:13.758Z,35.60
2023-03-18T09:00:41.672Z,26.73
2023-03-18T09:03:09.974Z,27.42
2023-03-18T09:05:37.652Z,27.00
2023-03-18T09:08:05.179Z,28.13
2023-03-18T09:10:33.131Z,27.20
2023-03-18T09:13:00.782Z,27.42
2023-03-18T09:15:27.734Z,29.67
2023-03-18T09:18:10.429Z,28.45
2023-03-18T09:20:39.093Z,27.92
2023-03-18T09:23:06.389Z,27.05
2023-03-18T09:25:34.119Z,28.13
2023-03-18T09:28:01.150Z,27.67
2023-03-18T09:30:28.477Z,28.02
2023-03-18T09:32:56.418Z,26.75
2023-03-18T09:35:24.068Z,26.42
2023-03-18T09:37:51.825Z,27.85
2023-03-18T09:40:38.004Z,26.13
2023-03-18T09:43:39.106Z,26.45
2023-03-18T09:46:16.212Z,24.33
2023-03-18T09:49:20.416Z,27.58
2023-03-18T09:52:17.008Z,28.23
2023-03-18T09:54:47.476Z,25.83
2023-03-18T09:57:32.147Z,29.08
2023-03-18T10:00:09.034Z,30.00
2023-03-18T10:02:41.612Z,28.00
2023-03-18T10:05:33.337Z,27.48
2023-03-18T10:08:11.551Z,28.00
2023-03-18T10:10:46.044Z,28.60
2023-03-18T10:13:25.402Z,28.10
2023-03-18T10:15:57.472Z,28.45
2023-03-18T10:18:33.303Z,29.90
2023-03-18T10:21:20.333Z,29.88
2023-03-18T10:24:02.656Z,27.75
2023-03-18T10:26:39.679Z,27.77
2023-03-18T10:29:34.590Z,27.15
2023-03-18T10:32:16.789Z,29.10
2023-03-18T10:35:09.336Z,36.38
2023-03-18T10:38:04.416Z,35.88
2023-03-18T10:40:41.184Z,35.72
2023-03-18T10:43:20.736Z,36.80
2023-03-18T10:45:52.631Z,35.90
2023-03-18T10:48:42.343Z,37.72
2023-03-18T10:51:27.197Z,36.92
2023-03-18T10:54:15.617Z,38.92
2023-03-18T10:56:42.799Z,38.40
2023-03-18T10:59:16.693Z,38.17
2023-03-18T11:01:46.796Z,37.65
2023-03-18T11:04:16.996Z,34.58
2023-03-18T11:06:51.568Z,35.47
2023-03-18T11:09:21.968Z,38.30
2023-03-18T11:11:55.621Z,38.45
2023-03-18T11:14:28.823Z,40.83
2023-03-18T11:17:06.042Z,37.85
2023-03-18T11:19:41.648Z,38.58
2023-03-18T11:22:28.470Z,39.20
2023-03-18T11:25:20.019Z,40.15
2023-03-18T11:27:52.225Z,36.72
2023-03-18T11:30:34.491Z,36.67
2023-03-18T11:33:10.922Z,36.63
2023-03-18T11:35:57.320Z,40.00
2023-03-18T11:38:33.371Z,38.25
2023-03-18T11:41:16.888Z,38.83
2023-03-18T11:44:03.653Z,37.03
2023-03-18T11:46:43.070Z,39.13
2023-03-18T11:49:15.268Z,36.78
2023-03-18T11:51:45.645Z,37.30
2023-03-18T11:54:18.436Z,37.08
2023-03-18T11:57:14.613Z,36.85
2023-03-18T12:00:07.593Z,36.25
2023-03-18T12:02:40.106Z,37.45
2023-03-18T12:05:20.099Z,35.83
2023-03-18T12:08:09.894Z,37.55
2023-03-18T12:10:42.252Z,38.63
2023-03-18T12:13:21.615Z,36.90
2023-03-18T12:16:11.248Z,35.67
2023-03-18T12:18:58.643Z,35.80
2023-03-18T12:22:11.493Z,36.60
2023-03-18T12:24:59.928Z,35.28
2023-03-18T12:27:36.931Z,35.47
2023-03-18T12:30:20.787Z,37.58
2023-03-18T12:33:16.127Z,38.55
2023-03-18T12:38:59.816Z,37.90
2023-03-18T12:41:41.337Z,38.10
2023-03-18T12:44:25.381Z,41.72
2023-03-18T12:47:07.719Z,36.50
2023-03-18T12:49:44.654Z,38.33
2023-03-18T12:52:23.725Z,35.97
2023-03-18T12:55:06.666Z,38.47
2023-03-18T12:57:38.029Z,37.83
2023-03-18T13:00:23.653Z,34.35
2023-03-18T13:02:59.154Z,35.88
2023-03-18T13:05:38.125Z,35.65
2023-03-18T13:08:29.261Z,34.97
2023-03-18T13:11:37.912Z,38.25
2023-03-18T13:14:24.145Z,36.70
2023-03-18T13:16:53.025Z,36.28
2023-03-18T13:19:19.857Z,36.97
2023-03-18T13:21:52.480Z,36.97
2023-03-18T13:24:48.974Z,37.03
2023-03-18T13:27:44.577Z,36.33
2023-03-18T13:30:37.248Z,35.38
2023-03-18T13:33:23.819Z,33.75
2023-03-18T13:36:10.727Z,34.35
2023-03-18T13:38:52.354Z,34.90
2023-03-18T13:41:47.528Z,34.95
2023-03-18T13:44:41.618Z,33.67
2023-03-18T13:47:13.826Z,33.42
2023-03-18T13:49:41.070Z,36.53
2023-03-18T13:52:25.938Z,34.72
2023-03-18T13:54:52.854Z,34.33
2023-03-18T13:57:46.909Z,34.60
2023-03-18T14:00:33.930Z,36.20
2023-03-18T14:03:22.936Z,36.05
2023-03-18T14:05:52.201Z,37.97
2023-03-18T14:08:38.255Z,37.88
2023-03-18T14:11:17.214Z,36.42
2023-03-18T14:13:44.871Z,40.92
2023-03-18T14:16:20.229Z,36.45
2023-03-18T14:19:00.232Z,40.30
2023-03-18T14:21:31.971Z,35.90
2023-03-18T14:24:17.758Z,37.17
2023-03-18T14:26:59.409Z,36.60
2023-03-18T14:29:31.046Z,38.25
2023-03-18T14:31:59.693Z,35.42
2023-03-18T14:34:29.227Z,37.70
2023-03-18T14:36:56.207Z,29.95
2023-03-18T14:39:43.067Z,34.95
2023-03-18T14:42:29.327Z,34.08
2023-03-18T14:45:02.470Z,36.47
2023-03-18T14:47:52.216Z,37.88
2023-03-18T14:50:29.481Z,36.55
2023-03-18T14:53:00.599Z,38.63
2023-03-18T14:55:32.498Z,35.40
2023-03-18T14:57:59.517Z,33.42
2023-03-18T15:00:28.391Z,32.78
2023-03-18T15:03:03.656Z,31.60
2023-03-18T15:05:37.438Z,35.25
2023-03-18T15:08:09.310Z,33.70
2023-03-18T15:10:36.341Z,34.17
2023-03-18T15:13:11.458Z,34.85
2023-03-18T15:15:38.806Z,34.38
2023-03-18T15:18:24.253Z,34.33
2023-03-18T15:20:57.417Z,35.22
2023-03-18T15:23:30.789Z,35.05
2023-03-18T15:25:57.654Z,34.00
2023-03-18T15:28:27.665Z,32.80
2023-03-18T15:30:56.906Z,33.95
2023-03-18T15:33:29.757Z,32.53
2023-03-18T15:36:03.062Z,32.70
2023-03-18T15:38:31.724Z,33.40
2023-03-18T15:41:09.994Z,32.83
2023-03-18T15:43:44.963Z,34.30
2023-03-18T15:49:01.100Z,34.40
2023-03-18T15:51:38.577Z,34.88
2023-03-18T15:54:15.772Z,36.58
2023-03-18T15:56:48.707Z,34.00
2023-03-18T15:59:18.712Z,35.05
2023-03-18T16:01:47.194Z,34.80
2023-03-18T16:04:17.730Z,34.80
2023-03-18T16:06:44.963Z,36.58
2023-03-18T16:09:20.601Z,37.13
2023-03-18T16:12:01.417Z,36.40
2023-03-18T16:14:37.161Z,35.75
2023-03-18T16:17:03.853Z,38.17
2023-03-18T16:19:30.831Z,35.40
2023-03-18T16:21:58.774Z,37.25
2023-03-18T16:24:25.815Z,34.17
2023-03-18T16:26:54.066Z,35.40
2023-03-18T16:29:41.488Z,29.90
2023-03-18T16:32:12.540Z,32.03
2023-03-18T16:34:39.609Z,30.00
2023-03-18T16:37:06.531Z,29.92
2023-03-18T16:39:35.344Z,29.75
2023-03-18T16:42:04.233Z,29.23
2023-03-18T16:44:33.341Z,29.98
2023-03-18T16:47:02.262Z,29.23
2023-03-18T16:49:34.184Z,30.30
2023-03-18T16:52:03.642Z,30.05
2023-03-18T16:54:32.758Z,32.55
2023-03-18T16:57:02.857Z,32.20
2023-03-18T16:59:33.659Z,33.17
2023-03-18T17:02:00.635Z,32.30
2023-03-18T17:04:34.894Z,21.65
2023-03-18T17:07:04.926Z,22.50
2023-03-18T17:09:31.943Z,23.92
2023-03-18T17:12:03.772Z,25.15
2023-03-18T17:14:38.464Z,23.60
2023-03-18T17:17:13.950Z,23.40
2023-03-18T17:19:41.121Z,22.83
2023-03-18T17:22:24.521Z,22.02
2023-03-18T17:24:51.395Z,21.23
2023-03-18T17:27:31.730Z,21.05
2023-03-18T17:29:58.375Z,16.35
2023-03-18T17:32:25.896Z,15.00
2023-03-18T17:34:53.613Z,13.05
2023-03-18T17:37:20.954Z,10.52
2023-03-18T17:39:47.866Z,11.02
2023-03-18T17:42:28.046Z,15.60
2023-03-18T17:44:55.452Z,12.70
2023-03-18T17:47:22.557Z,21.48
2023-03-18T17:49:49.150Z,22.45
2023-03-18T17:52:20.806Z,22.30
2023-03-18T17:54:47.961Z,14.23
2023-03-18T17:57:16.076Z,12.80
2023-03-18T17:59:42.697Z,14.40
2023-03-18T18:02:18.210Z,22.45
2023-03-18T18:04:45.787Z,11.30
2023-03-18T18:07:21.675Z,12.57
2023-03-18T18:09:49.473Z,15.80
2023-03-18T18:12:25.104Z,12.15
2023-03-18T18:14:51.788Z,13.60
2023-03-18T18:17:18.970Z,12.75
2023-03-18T18:19:46.336Z,26.83
2023-03-18T18:22:22.705Z,12.57
2023-03-18T18:24:50.246Z,13.63
2023-03-18T18:27:16.884Z,15.88
2023-03-18T18:29:45.543Z,18.10
2023-03-18T18:32:12.730Z,22.92
2023-03-18T18:34:39.471Z,18.77
2023-03-18T18:37:06.576Z,13.93
2023-03-18T18:39:33.260Z,15.95
2023-03-18T18:41:59.992Z,27.42
2023-03-18T18:44:28.188Z,24.23
2023-03-18T18:46:54.935Z,16.40
2023-03-18T18:49:24.339Z,18.00
2023-03-18T18:51:55.551Z,24.15
2023-03-18T18:54:23.248Z,12.57
2023-03-18T18:56:50.699Z,16.05
2023-03-18T18:59:24.568Z,15.32
2023-03-18T19:01:51.789Z,17.15
2023-03-18T19:04:18.743Z,11.75
2023-03-18T19:06:46.222Z,14.27
2023-03-18T19:09:19.238Z,14.45
2023-03-18T19:11:47.049Z,14.55
2023-03-18T19:14:18.270Z,16.33
2023-03-18T19:16:45.375Z,20.00
2023-03-18T19:19:20.598Z,19.63
2023-03-18T19:21:47.331Z,16.83
2023-03-18T19:24:28.199Z,17.75
2023-03-18T19:26:57.534Z,14.10
2023-03-18T19:29:25.160Z,18.42
2023-03-18T19:31:52.548Z,16.35
2023-03-18T19:34:20.044Z,16.70
2023-03-18T19:36:48.945Z,19.00
2023-03-18T19:39:18.741Z,15.15
2023-03-18T19:41:47.469Z,15.60
2023-03-18T19:44:22.557Z,10.07
2023-03-18T19:46:51.699Z,11.13
2023-03-18T19:49:36.541Z,12.10
2023-03-18T19:52:21.868Z,13.27
2023-03-18T19:54:49.525Z,10.82
2023-03-18T19:57:23.254Z,9.88
2023-03-18T19:59:52.125Z,13.65
2023-03-18T20:02:25.589Z,10.23
2023-03-18T20:04:57.930Z,9.93
2023-03-18T20:07:26.880Z,10.38
2023-03-18T20:09:54.408Z,10.02
2023-03-18T20:12:26.302Z,8.68
2023-03-18T20:14:53.179Z,8.90
2023-03-18T20:17:37.044Z,11.90
2023-03-18T20:20:05.289Z,13.88
2023-03-18T20:22:37.916Z,14.88
2023-03-18T20:25:06.923Z,11.20
2023-03-18T20:27:33.850Z,13.40
2023-03-18T20:30:01.097Z,10.70
2023-03-18T20:32:27.709Z,10.02
2023-03-18T20:34:56.507Z,9.23
2023-03-18T20:37:34.430Z,9.55
2023-03-18T20:40:03.686Z,10.90
2023-03-18T20:42:30.996Z,11.98
2023-03-18T20:44:57.587Z,8.88
2023-03-18T20:47:24.223Z,13.38
2023-03-18T20:49:50.862Z,10.45
2023-03-18T20:52:27.279Z,10.02
2023-03-18T20:54:55.090Z,12.63
2023-03-18T20:57:21.699Z,10.65
2023-03-18T20:59:48.771Z,8.32
2023-03-18T21:02:33.112Z,10.98
2023-03-18T21:05:01.546Z,15.82
2023-03-18T21:07:28.961Z,11.50
2023-03-18T21:09:55.793Z,10.48
2023-03-18T21:12:22.646Z,7.20
2023-03-18T21:14:49.891Z,10.88
2023-03-18T21:17:25.190Z,11.30
2023-03-18T21:19:53.439Z,11.07
2023-03-18T21:22:22.541Z,10.70
2023-03-18T21:24:49.717Z,9.15
2023-03-18T21:27:22.201Z,6.15
2023-03-18T21:29:50.894Z,8.23
2023-03-18T21:32:27.195Z,8.57
2023-03-18T21:34:54.796Z,9.68
2023-03-18T21:37:25.391Z,9.07
2023-03-18T21:39:52.139Z,9.25
2023-03-18T21:42:22.186Z,15.60
2023-03-18T21:44:49.136Z,12.70
2023-03-18T21:47:17.887Z,11.95
2023-03-18T21:49:45.659Z,12.63
2023-03-18T21:52:31.929Z,10.23
2023-03-18T21:54:59.613Z,8.80
2023-03-18T21:57:27.202Z,7.80
2023-03-18T21:59:54.104Z,11.75
2023-03-18T22:02:35.736Z,7.85
2023-03-18T22:05:12.042Z,9.38
2023-03-18T22:07:38.649Z,9.43
2023-03-18T22:10:06.972Z,11.55
2023-03-18T22:12:33.833Z,9.10
2023-03-18T22:15:01.002Z,10.40
2023-03-18T22:17:32.615Z,8.20
2023-03-18T22:20:01.745Z,10.95
2023-03-18T22:22:34.425Z,10.05
2023-03-18T22:25:01.057Z,8.73
2023-03-18T22:27:30.208Z,10.90
2023-03-18T22:29:58.973Z,10.00
2023-03-18T22:32:41.458Z,15.43
2023-03-18T22:35:22.789Z,34.03
2023-03-18T22:37:50.208Z,16.20
2023-03-18T22:40:25.212Z,11.57
2023-03-18T22:45:28.718Z,12.98
2023-03-18T22:47:57.669Z,13.45
2023-03-18T22:50:26.583Z,9.52
2023-03-18T22:53:01.756Z,15.13
2023-03-18T22:55:34.694Z,14.25
2023-03-18T22:58:01.695Z,13.30
2023-03-18T23:00:37.908Z,12.13
2023-03-18T23:03:12.092Z,14.23
2023-03-18T23:05:38.740Z,22.77
2023-03-18T23:08:05.950Z,25.40
2023-03-18T23:10:33.002Z,35.30
2023-03-18T23:12:59.639Z,30.65
2023-03-18T23:15:26.249Z,20.98
2023-03-18T23:17:52.827Z,27.75
2023-03-18T23:20:19.561Z,17.65
2023-03-18T23:22:46.518Z,20.13
2023-03-18T23:25:16.498Z,20.20
2023-03-18T23:27:44.304Z,16.92
2023-03-18T23:30:12.873Z,19.70
2023-03-18T23:32:40.680Z,19.75
2023-03-18T23:35:08.574Z,23.50
2023-03-18T23:37:35.608Z,16.25
2023-03-18T23:40:02.976Z,16.70
2023-03-18T23:42:29.598Z,22.10
2023-03-18T23:44:56.294Z,20.48
2023-03-18T23:47:23.026Z,14.68
2023-03-18T23:49:49.651Z,26.25
2023-03-18T23:52:16.588Z,23.23
2023-03-18T23:54:43.311Z,18.23
2023-03-18T23:57:11.126Z,15.48
2023-03-18T23:59:38.368Z,22.40
